N3148X KRDU-
Flight info
| Callsign | N3148X |
|---|---|
| Flight time | N/A |
| Altitude | VFR/025 |
| Route | |
| Aircraft | C172/L-VGD/C |
Departure
| Time | 2026-05-04 17:27 |
|---|---|
| Airport | Raleigh-Durham International Airport (KRDU) |
Arrival
| Time | N/A |
|---|---|
| Airport | - |
| Time | Latitude | Longitude | Altitude | Speed | Heading |
|---|---|---|---|---|---|
| 2026-05-04 17:21 | 35.88001 | -78.78319 | 423 ft | 0 kts | 44° |
| 2026-05-04 17:21 | 35.88002 | -78.78318 | 423 ft | 1 kts | 46° |
| 2026-05-04 17:22 | 35.88000 | -78.78278 | 422 ft | 7 kts | 108° |
| 2026-05-04 17:22 | 35.87974 | -78.78214 | 421 ft | 8 kts | 129° |
| 2026-05-04 17:23 | 35.88071 | -78.78031 | 415 ft | 5 kts | 135° |
| 2026-05-04 17:23 | 35.88050 | -78.78037 | 416 ft | 1 kts | 202° |
| 2026-05-04 17:23 | 35.88014 | -78.78039 | 417 ft | 0 kts | 146° |
| 2026-05-04 17:24 | 35.88012 | -78.78037 | 417 ft | 1 kts | 149° |
| 2026-05-04 17:25 | 35.88011 | -78.78037 | 417 ft | 1 kts | 149° |
| 2026-05-04 17:25 | 35.87877 | -78.77986 | 416 ft | 13 kts | 221° |
| 2026-05-04 17:26 | 35.87815 | -78.78060 | 419 ft | 28 kts | 225° |
| 2026-05-04 17:26 | 35.86967 | -78.79186 | 727 ft | 70 kts | 226° |
| 2026-05-04 17:27 | 35.86266 | -78.80149 | 1032 ft | 78 kts | 222° |
| 2026-05-04 17:27 | 35.85245 | -78.80592 | 1380 ft | 79 kts | 193° |
| 2026-05-04 17:28 | 35.84190 | -78.80860 | 1634 ft | 79 kts | 197° |
| 2026-05-04 17:29 | 35.82595 | -78.80973 | 1970 ft | 78 kts | 184° |
| 2026-05-04 17:29 | 35.80807 | -78.80719 | 2063 ft | 90 kts | 177° |
| 2026-05-04 17:30 | 35.78928 | -78.80448 | 2110 ft | 93 kts | 185° |
| 2026-05-04 17:31 | 35.77826 | -78.81118 | 2140 ft | 88 kts | 223° |
| 2026-05-04 17:31 | 35.76735 | -78.82913 | 2184 ft | 86 kts | 236° |
| 2026-05-04 17:32 | 35.76126 | -78.84167 | 2218 ft | 86 kts | 237° |
| 2026-05-04 17:33 | 35.75151 | -78.85998 | 2289 ft | 84 kts | 233° |
| 2026-05-04 17:33 | 35.74802 | -78.86595 | 2295 ft | 86 kts | 231° |
| 2026-05-04 17:34 | 35.73634 | -78.88355 | 2314 ft | 87 kts | 226° |
| 2026-05-04 17:34 | 35.73208 | -78.88909 | 2291 ft | 91 kts | 226° |
| 2026-05-04 17:35 | 35.71850 | -78.90601 | 2286 ft | 92 kts | 223° |
| 2026-05-04 17:35 | 35.70864 | -78.91597 | 2305 ft | 92 kts | 220° |
| 2026-05-04 17:35 | 35.70394 | -78.92122 | 2328 ft | 90 kts | 225° |
| 2026-05-04 17:36 | 35.69976 | -78.92696 | 2340 ft | 89 kts | 230° |
| 2026-05-04 17:36 | 35.69582 | -78.93299 | 2356 ft | 89 kts | 230° |
| 2026-05-04 17:36 | 35.69173 | -78.93880 | 2333 ft | 91 kts | 228° |
| 2026-05-04 17:36 | 35.68747 | -78.94475 | 2326 ft | 91 kts | 229° |
| 2026-05-04 17:37 | 35.68330 | -78.95052 | 2330 ft | 89 kts | 227° |
| 2026-05-04 17:37 | 35.67921 | -78.95637 | 2297 ft | 91 kts | 231° |
| 2026-05-04 17:37 | 35.67544 | -78.96266 | 2292 ft | 91 kts | 232° |
| 2026-05-04 17:37 | 35.67175 | -78.96901 | 2276 ft | 91 kts | 233° |
| 2026-05-04 17:38 | 35.66782 | -78.97523 | 2234 ft | 93 kts | 230° |
| 2026-05-04 17:38 | 35.66370 | -78.98128 | 2246 ft | 90 kts | 229° |
| 2026-05-04 17:38 | 35.65957 | -78.98749 | 2181 ft | 95 kts | 232° |
| 2026-05-04 17:38 | 35.65557 | -78.99381 | 2192 ft | 91 kts | 233° |
| 2026-05-04 17:39 | 35.64828 | -79.00703 | 2137 ft | 93 kts | 237° |
| 2026-05-04 17:39 | 35.64480 | -79.01368 | 2129 ft | 91 kts | 237° |
| 2026-05-04 17:39 | 35.64206 | -79.02072 | 2037 ft | 90 kts | 247° |
| 2026-05-04 17:40 | 35.64000 | -79.02821 | 1885 ft | 93 kts | 249° |
| 2026-05-04 17:40 | 35.63817 | -79.03574 | 1742 ft | 92 kts | 253° |
| 2026-05-04 17:40 | 35.63682 | -79.04317 | 1649 ft | 87 kts | 253° |
| 2026-05-04 17:40 | 35.63580 | -79.05039 | 1545 ft | 86 kts | 262° |
| 2026-05-04 17:41 | 35.63535 | -79.05738 | 1517 ft | 70 kts | 253° |
| 2026-05-04 17:41 | 35.63442 | -79.06316 | 1418 ft | 71 kts | 266° |
| 2026-05-04 17:41 | 35.63381 | -79.06892 | 1316 ft | 71 kts | 237° |
| 2026-05-04 17:41 | 35.63070 | -79.07385 | 1197 ft | 73 kts | 227° |
| 2026-05-04 17:42 | 35.62664 | -79.07753 | 1117 ft | 71 kts | 214° |
| 2026-05-04 17:42 | 35.62216 | -79.08073 | 997 ft | 74 kts | 213° |
| 2026-05-04 17:42 | 35.61788 | -79.08398 | 891 ft | 71 kts | 216° |
| 2026-05-04 17:42 | 35.61338 | -79.08680 | 776 ft | 70 kts | 208° |
| 2026-05-04 17:43 | 35.60875 | -79.08881 | 655 ft | 72 kts | 205° |
| 2026-05-04 17:43 | 35.60416 | -79.09076 | 595 ft | 60 kts | 206° |
| 2026-05-04 17:43 | 35.60038 | -79.09242 | 496 ft | 58 kts | 212° |
| 2026-05-04 17:43 | 35.59669 | -79.09445 | 417 ft | 56 kts | 211° |
| 2026-05-04 17:44 | 35.59301 | -79.09621 | 312 ft | 55 kts | 210° |
| 2026-05-04 17:44 | 35.58946 | -79.09792 | 230 ft | 52 kts | 209° |
| 2026-05-04 17:44 | 35.58648 | -79.09952 | 216 ft | 38 kts | 202° |
| 2026-05-04 17:44 | 35.58445 | -79.10039 | 222 ft | 23 kts | 201° |
| 2026-05-04 17:45 | 35.58366 | -79.10110 | 226 ft | 9 kts | 272° |
| 2026-05-04 17:45 | 35.58375 | -79.10147 | 227 ft | 0 kts | 291° |
| 2026-05-04 17:45 | 35.58382 | -79.10169 | 228 ft | 6 kts | 292° |
| 2026-05-04 17:45 | 35.58373 | -79.10214 | 229 ft | 5 kts | 208° |
| 2026-05-04 17:46 | 35.58334 | -79.10234 | 231 ft | 6 kts | 201° |
| 2026-05-04 17:46 | 35.58282 | -79.10260 | 232 ft | 9 kts | 202° |
| 2026-05-04 17:46 | 35.58207 | -79.10297 | 235 ft | 12 kts | 202° |
| 2026-05-04 17:46 | 35.58116 | -79.10337 | 237 ft | 14 kts | 200° |
| 2026-05-04 17:47 | 35.58023 | -79.10381 | 240 ft | 13 kts | 201° |
| 2026-05-04 17:47 | 35.57987 | -79.10451 | 242 ft | 8 kts | 244° |
| 2026-05-04 17:47 | 35.57948 | -79.10478 | 242 ft | 5 kts | 224° |
| 2026-05-04 17:47 | 35.57945 | -79.10494 | 242 ft | 0 kts | 269° |